Date,TemperatureHighF,TemperatureAvgF,TemperatureLowF,DewpointHighF,DewpointAvgF,DewpointLowF,HumidityHigh,HumidityAvg,HumidityLow,PressureMaxIn,PressureMinIn,WindSpeedMaxMPH,WindSpeedAvgMPH,GustSpeedMaxMPH,PrecipitationSumIn
2013-1-1,39.9,36.5,28.2,31.3,27.9,15.5,68,61,46,30.05,29.88,5,2,8,0.04
2013-1-2,33.6,27.3,22.6,19.7,15.6,13.5,57,49,43,30.21,30.01,5,1,10,0.01
2013-1-3,32.9,27.2,21.7,20.2,16.5,13.4,61,52,43,30.22,30.11,4,1,8,0.00
2013-1-4,36.9,33.0,28.0,23.7,22.1,17.8,59,53,46,30.14,30.02,6,2,11,0.00
2013-1-5,42.1,33.2,28.9,27.6,22.5,19.4,65,54,44,30.35,30.08,5,1,9,0.00
2013-1-6,47.3,37.9,31.3,34.8,29.5,23.6,85,64,42,30.25,30.00,4,1,8,0.02
2013-1-7,46.4,38.4,31.3,32.9,28.1,24.2,68,57,42,30.42,30.09,6,1,10,0.01
2013-1-8,49.8,36.5,27.0,36.5,28.7,21.1,79,66,49,30.43,30.36,6,1,15,0.01
2013-1-9,50.2,40.6,30.0,40.7,34.2,25.9,82,71,58,30.41,30.17,4,1,8,0.00
2013-1-10,50.2,31.5,36.5,34.7,22.1,0.0,59,37,37,30.55,30.30,5,1,11,0.00
2013-1-11,45.9,40.4,33.4,43.2,34.2,0.0,95,72,54,30.53,30.10,4,1,5,0.56
2013-1-12,48.0,44.3,42.4,45.9,42.9,41.4,95,93,88,30.19,30.10,2,0,4,0.01
2013-1-13,49.3,45.5,42.4,48.3,44.5,0.0,96,94,93,30.17,30.02,2,0,4,0.01
2013-1-14,52.5,49.9,48.9,51.1,48.9,47.9,96,95,95,30.12,29.94,4,0,5,0.02
2013-1-15,37.9,36.4,33.6,35.2,30.6,28.7,87,73,64,30.36,30.21,5,1,7,0.19
2013-1-16,36.0,34.0,32.4,34.1,31.9,30.1,90,89,84,30.21,29.83,4,1,6,1.05
2013-1-17,43.7,38.4,36.0,35.7,31.1,28.2,91,67,54,30.11,29.96,6,1,10,0.01
2013-1-18,35.8,29.2,24.6,28.6,15.3,7.5,74,45,24,30.49,30.01,10,2,18,0.01
2013-1-19,51.4,34.0,25.3,32.3,23.1,0.0,66,44,34,30.42,29.95,5,2,10,0.20
2013-1-20,55.4,42.5,29.1,35.3,25.7,12.2,65,42,19,30.07,29.76,10,3,17,0.20
2013-1-21,32.4,27.3,21.6,20.0,14.0,11.0,68,45,33,30.12,29.88,7,1,15,0.00
2013-1-22,24.1,17.6,11.8,11.4,-1.1,-7.5,46,29,19,30.25,29.89,7,3,17,0.00
2013-1-23,20.3,13.2,9.5,2.2,-2.5,-7.0,53,34,23,30.29,30.18,6,2,10,0.00
2013-1-24,26.2,17.6,11.5,4.7,0.9,-4.2,57,35,19,30.45,30.12,9,2,17,0.00
2013-1-25,22.6,15.8,10.4,10.8,2.6,-4.9,68,43,25,30.46,30.08,4,1,8,0.00
2013-1-26,28.9,18.7,8.6,12.9,7.7,2.0,69,51,29,30.41,30.07,5,1,11,0.04
2013-1-27,36.1,23.5,13.1,18.3,11.3,3.3,56,47,30,30.56,30.40,5,1,9,0.01
2013-1-28,35.4,30.7,23.4,33.3,25.5,13.8,89,75,52,30.51,30.03,6,1,8,0.24
2013-1-29,50.0,43.1,34.2,46.4,40.4,31.9,95,87,79,30.16,30.03,4,1,6,0.01
2013-1-30,66.0,54.0,43.3,59.5,51.5,42.3,96,89,73,30.06,29.36,8,1,12,0.26
2013-1-31,60.8,42.8,27.9,59.1,31.5,11.4,94,57,29,29.86,29.11,14,5,27,1.10
2013-2-1,30.6,26.6,20.7,17.6,9.7,3.7,62,36,21,30.28,29.84,7,3,14,0.01
2013-2-2,29.8,22.6,15.6,19.0,8.5,3.6,74,42,24,30.32,30.04,6,2,11,0.00
2013-2-3,32.5,25.5,21.6,23.2,19.4,16.3,80,70,54,30.04,29.82,4,0,5,0.05
2013-2-4,31.3,24.3,18.7,20.0,11.7,0.0,70,44,32,30.04,29.86,916,2,916,0.01
2013-2-5,32.2,27.4,26.4,27.5,22.7,0.0,84,69,62,29.97,29.90,916,0,916,0.00
2013-2-6,40.3,31.7,26.1,27.7,23.3,14.2,86,63,43,30.36,29.94,8,1,13,0.01
2013-2-7,34.7,28.3,22.3,22.9,16.6,12.5,60,50,35,30.49,30.29,4,1,7,0.01
2013-2-8,36.0,33.1,30.7,32.2,29.6,23.4,89,82,62,30.28,29.70,6,2,9,0.29
2013-2-9,35.4,27.5,19.6,29.4,18.1,8.0,89,60,32,30.38,29.79,8,1,17,0.11
2013-2-10,45.0,26.6,12.4,21.3,12.9,4.6,62,45,21,30.49,30.32,3,1,6,0.01
2013-2-11,47.5,38.7,30.0,46.5,35.8,20.8,95,86,56,30.32,29.68,4,1,8,0.34
2013-2-12,47.5,39.9,29.3,39.9,28.4,22.0,95,54,38,30.01,29.79,9,2,13,0.01
2013-2-13,45.7,34.7,25.5,30.9,26.2,19.8,85,63,44,29.99,29.70,3,1,5,0.00
2013-2-14,48.6,37.0,28.9,35.6,30.3,26.2,88,71,47,30.02,29.74,4,0,6,0.35
2013-2-15,58.6,42.3,31.3,39.3,32.4,26.5,84,62,34,30.04,29.93,6,1,9,0.02
2013-2-16,38.1,33.9,29.3,31.1,25.7,14.7,85,64,41,30.00,29.78,8,2,14,0.05
2013-2-17,33.4,26.9,19.2,15.0,6.5,-0.4,42,28,22,30.08,29.74,11,4,21,0.04
2013-2-18,37.9,25.4,17.4,16.0,6.5,-1.6,45,30,21,30.31,30.08,9,2,13,0.01
2013-2-19,45.7,36.7,25.5,41.7,29.6,13.4,92,69,41,30.21,29.72,5,1,11,0.27
2013-2-20,34.9,29.1,23.9,26.2,15.0,8.7,61,43,30,30.05,29.79,9,3,18,0.01
2013-2-21,36.9,28.6,23.2,17.9,14.1,10.2,51,42,29,30.32,30.04,11,3,19,0.01
2013-2-22,38.1,30.0,21.0,27.9,20.4,12.2,73,57,46,30.41,30.25,4,1,8,0.00
2013-2-23,44.8,38.9,32.7,43.4,37.1,28.1,95,91,73,30.27,29.82,4,1,6,0.19
2013-2-24,47.3,37.6,30.2,40.5,30.8,20.7,95,70,50,30.03,29.79,11,2,20,0.06
2013-2-25,46.9,35.0,27.0,31.8,24.8,19.0,67,56,42,30.25,30.04,8,1,10,0.01
2013-2-26,46.2,36.3,27.9,34.7,29.4,21.3,89,69,49,30.26,29.82,8,2,12,0.34
2013-2-27,53.6,44.4,36.9,46.8,40.1,34.7,95,81,59,29.83,29.53,8,2,11,0.22
2013-2-28,46.6,41.6,34.5,99.9,33.2,29.0,75,62,12,29.68,29.60,5,1,8,0.01
2013-3-1,47.7,38.1,31.3,33.1,28.8,25.0,80,61,44,29.83,29.66,7,2,12,0.00
2013-3-2,39.9,34.4,29.8,26.8,23.4,20.1,59,53,46,29.83,29.74,8,2,13,0.00
2013-3-3,40.1,31.2,25.3,24.1,19.0,15.1,57,49,36,29.82,29.73,8,2,14,0.00
2013-3-4,43.2,33.5,28.0,24.5,20.0,15.0,57,46,32,29.96,29.82,8,3,16,0.00
2013-3-5,51.8,37.9,30.2,30.9,25.5,21.4,65,51,32,30.05,29.95,7,1,13,0.00
2013-3-6,41.4,37.3,32.9,35.7,32.0,25.6,85,75,63,29.96,29.78,10,4,17,0.11
2013-3-7,46.6,38.9,33.6,31.9,29.2,25.1,79,59,43,30.11,29.94,8,3,16,0.02
2013-3-8,42.3,34.8,29.3,33.9,29.2,24.8,86,74,52,30.23,30.05,8,2,12,0.43
2013-3-9,61.9,44.1,31.6,31.5,24.0,15.8,57,37,16,30.32,30.21,5,1,10,0.04
2013-3-10,59.9,43.6,32.4,40.2,31.7,15.7,84,56,23,30.38,30.27,4,1,8,0.00
2013-3-11,60.8,46.0,35.1,47.6,40.8,31.2,94,78,45,30.32,30.07,4,0,6,0.00
2013-3-12,58.3,51.3,41.5,57.2,48.7,35.8,96,88,73,30.07,29.70,5,2,9,1.02
2013-3-13,50.5,40.6,33.8,35.8,30.7,23.5,76,59,37,29.95,29.84,6,2,11,0.01
2013-3-14,42.1,34.7,28.4,23.6,17.5,10.6,66,39,21,30.01,29.91,11,3,17,0.00
2013-3-15,51.3,39.4,26.2,34.4,23.7,11.6,52,41,27,30.03,29.75,7,2,13,0.00
2013-3-16,45.5,36.2,32.0,33.3,28.9,24.0,85,69,48,29.94,29.78,4,0,6,0.00
2013-3-17,40.3,32.2,26.2,29.7,23.5,19.8,86,62,41,30.31,29.93,6,1,9,0.22
2013-3-18,40.8,32.2,27.5,33.0,23.7,12.5,91,63,38,30.38,29.93,5,2,10,0.39
2013-3-19,52.0,39.9,34.5,42.8,33.1,20.4,95,73,30,29.93,29.72,7,2,13,0.73
2013-3-20,48.2,38.4,29.8,25.2,21.0,17.3,52,38,20,29.94,29.80,7,2,11,0.01
2013-3-21,39.6,33.1,27.5,26.8,19.1,10.9,79,47,21,29.84,29.68,8,2,13,0.02
2013-3-22,44.6,33.3,26.1,26.5,19.8,12.5,59,46,32,29.94,29.79,7,3,11,0.02
2013-3-23,49.3,37.3,29.3,27.4,21.8,19.2,56,43,24,29.98,29.87,7,2,11,0.00
2013-3-24,47.3,38.0,28.2,27.8,22.6,17.4,57,43,25,29.99,29.71,2,0,4,0.00
2013-3-25,37.4,35.1,32.9,32.4,29.9,25.3,87,75,53,29.72,29.49,5,1,8,0.50
2013-3-26,53.4,41.8,33.8,38.3,32.8,29.1,87,65,30,29.92,29.65,6,0,9,0.07
2013-3-27,53.2,42.1,30.7,33.7,30.5,26.4,79,56,28,30.04,29.92,4,0,6,0.00
2013-3-28,50.0,41.5,32.9,35.7,30.2,25.7,70,55,39,30.16,30.01,4,0,5,0.00
2013-3-29,55.6,45.0,34.3,35.1,30.8,25.7,65,48,30,30.19,30.10,1,0,3,0.00
2013-3-30,60.8,47.1,33.1,35.9,29.8,26.1,68,43,20,30.21,30.10,1,0,2,0.00
2013-3-31,57.9,46.1,35.2,47.0,38.1,28.2,96,69,36,30.14,29.72,7,0,11,0.18
2013-4-1,63.3,48.7,36.1,47.9,38.2,15.3,96,63,28,29.96,29.68,8,2,14,0.08
2013-4-2,45.5,37.1,28.6,20.9,16.5,13.1,46,31,19,30.13,29.96,6,1,10,0.01
2013-4-3,48.4,37.6,29.7,23.2,16.7,11.1,45,31,18,30.33,30.12,7,2,11,0.00
2013-4-4,55.4,40.2,25.7,29.7,21.5,11.5,54,36,21,30.42,30.10,4,0,6,0.00
2013-4-5,65.1,49.3,38.5,35.8,30.5,24.0,78,43,15,30.11,29.76,9,0,17,0.00
2013-4-6,55.8,42.9,33.1,32.0,24.0,19.1,67,38,17,30.32,30.03,7,2,11,0.00
2013-4-7,64.4,49.8,36.5,46.7,39.3,29.5,83,61,34,30.32,30.00,2,0,3,0.00
2013-4-8,79.5,63.4,48.0,55.4,50.3,44.3,83,57,32,30.10,29.99,1,0,2,0.00
2013-4-9,84.4,71.2,58.1,58.4,55.0,50.3,80,51,25,30.03,29.92,2,0,4,0.00
2013-4-10,89.1,71.6,60.1,65.7,59.5,55.3,98,62,36,29.97,29.82,8,1,17,0.39
2013-4-11,63.3,58.3,47.8,61.3,55.8,45.3,99,89,71,29.99,29.80,6,2,10,0.45
2013-4-12,47.8,43.9,42.1,45.3,43.3,41.9,99,97,87,29.98,29.71,8,2,11,0.76
2013-4-13,60.6,49.8,37.6,46.7,41.7,37.4,99,70,42,30.00,29.77,5,1,9,0.21
2013-4-14,62.2,51.7,41.2,43.1,38.9,32.3,85,55,29,30.20,30.00,7,1,13,0.00
2013-4-15,62.8,51.9,44.6,47.3,40.9,34.6,75,58,45,30.37,30.19,7,2,9,0.00
2013-4-16,72.7,59.4,45.5,60.9,52.6,43.3,94,74,53,30.37,30.14,7,2,11,0.00
2013-4-17,74.3,62.1,53.4,58.2,50.4,38.5,98,63,21,30.30,30.12,4,1,8,0.01
2013-4-18,61.3,55.7,50.0,56.9,51.5,44.3,99,82,69,30.32,30.09,7,1,10,0.01
2013-4-19,79.0,66.3,55.4,68.6,62.9,54.7,99,87,62,30.09,29.65,6,1,13,0.33
2013-4-20,59.7,51.1,44.4,54.6,39.2,30.3,99,59,31,30.33,29.74,5,2,13,0.20
2013-4-21,57.0,44.6,34.0,35.6,29.9,23.4,67,46,26,30.62,30.33,8,1,13,0.01
2013-4-22,54.0,44.6,34.9,40.7,36.3,29.9,83,66,45,30.63,30.47,7,2,13,0.00
2013-4-23,49.5,44.6,41.0,45.3,40.3,35.9,95,80,69,30.47,30.15,4,1,7,0.00
2013-4-24,73.8,56.8,38.8,59.8,50.5,38.6,99,77,53,30.15,29.83,4,0,8,0.00
2013-4-25,65.5,54.0,43.5,58.2,37.8,32.2,83,46,21,30.29,29.91,6,1,12,0.00
2013-4-26,66.2,53.8,41.2,44.1,37.0,31.8,73,45,21,30.43,30.29,1,0,2,0.00
2013-4-27,71.2,56.0,40.1,44.5,38.6,34.0,75,45,22,30.46,30.29,0,0,2,0.00
2013-4-28,73.4,58.0,43.2,51.3,43.0,36.0,83,51,29,30.33,30.20,1,0,3,0.00
2013-4-29,55.0,53.1,50.7,54.4,51.5,44.0,99,93,62,30.24,30.16,5,1,9,0.60
2013-4-30,70.9,57.6,46.9,55.8,47.6,36.3,99,67,32,30.34,30.19,3,0,4,0.11
2013-5-1,70.2,55.6,41.9,51.7,41.9,36.5,82,54,23,30.48,30.34,2,0,3,0.00
2013-5-2,74.7,57.7,40.6,53.9,46.3,40.0,99,63,29,30.47,30.34,1,0,2,0.00
2013-5-3,66.7,55.8,45.1,48.3,44.6,41.7,87,61,34,30.45,30.35,5,1,11,0.00
2013-5-4,71.6,54.9,41.4,52.3,45.7,40.6,99,69,32,30.39,30.23,5,0,8,0.00
2013-5-5,66.9,52.3,39.4,50.3,44.3,38.4,98,70,39,30.30,30.21,5,0,7,0.00
2013-5-6,70.9,55.6,44.1,58.3,51.0,41.7,97,82,55,30.26,30.15,7,1,10,0.00
2013-5-7,71.2,59.9,51.3,64.7,57.3,51.1,99,89,67,30.17,30.08,4,1,7,0.01
2013-5-8,71.6,61.6,56.7,67.0,60.4,56.4,99,95,73,30.08,29.95,3,1,4,0.09
2013-5-9,70.9,61.3,54.7,62.0,57.4,54.0,99,85,59,30.01,29.93,2,0,4,0.46
2013-5-10,84.7,69.6,55.8,64.8,60.3,55.3,99,71,37,30.04,29.92,3,0,6,0.01
2013-5-11,77.0,65.6,61.3,69.6,63.6,59.8,99,92,70,29.96,29.74,3,0,5,0.51
2013-5-12,65.5,58.8,45.9,59.6,46.7,32.0,96,61,26,30.00,29.73,4,0,10,0.02
2013-5-13,56.5,48.1,40.6,38.4,35.3,28.7,77,53,28,30.15,30.00,3,0,5,0.01
2013-5-14,62.4,49.1,34.7,39.3,35.2,32.0,87,54,23,30.18,30.06,1,0,3,0.00
2013-5-15,75.0,61.6,47.1,62.2,53.0,37.8,85,67,51,30.10,29.74,2,0,3,0.00
2013-5-16,81.9,68.7,58.3,69.4,62.1,56.8,96,77,53,29.89,29.75,2,0,3,0.07
2013-5-17,75.0,64.6,56.5,56.6,49.7,45.6,76,51,31,30.22,29.89,2,0,3,0.01
2013-5-18,68.9,59.7,53.6,58.7,54.1,47.8,99,78,58,30.31,30.22,2,0,4,0.02
2013-5-19,60.8,58.4,55.6,60.4,58.2,55.4,99,99,98,30.30,30.18,4,0,6,0.28
2013-5-20,80.2,67.1,57.6,71.9,64.5,57.3,99,90,67,30.19,30.01,3,0,4,0.01
2013-5-21,79.2,66.9,63.5,73.8,66.1,62.8,99,97,77,30.02,29.98,4,0,5,0.00
2013-5-22,88.7,76.4,67.3,76.9,71.2,66.8,99,82,52,29.96,29.86,3,0,7,0.00
2013-5-23,83.8,73.7,69.1,72.3,69.6,67.6,95,85,57,29.93,29.78,6,0,9,0.08
2013-5-24,69.1,54.7,43.7,67.7,52.9,41.5,99,92,73,30.04,29.74,5,1,13,0.61
2013-5-25,61.3,52.7,45.0,46.2,41.9,38.4,86,61,37,30.08,29.99,4,1,9,0.12
2013-5-26,70.5,57.9,46.8,48.1,42.3,38.6,68,49,24,30.23,30.05,4,0,6,0.04
2013-5-27,74.1,60.5,43.5,51.1,45.4,39.0,82,51,29,30.29,30.17,0,0,1,0.00
2013-5-28,64.4,59.3,52.0,64.2,56.2,47.9,99,87,62,30.24,30.13,1,0,2,0.24
2013-5-29,90.7,73.7,58.8,74.5,66.1,58.6,99,76,42,30.14,30.05,4,1,8,0.01
2013-5-30,93.2,81.7,68.7,72.7,69.4,66.8,93,63,39,30.18,30.11,3,0,5,0.00
2013-5-31,94.3,81.2,68.0,74.6,68.7,65.6,93,63,34,30.17,30.04,2,0,2,0.00
2013-6-1,93.2,80.7,68.2,74.4,70.4,66.5,95,68,40,30.07,29.94,2,0,4,0.00
2013-6-2,89.1,79.8,72.1,76.0,71.3,67.5,86,71,55,29.95,29.83,4,0,7,0.00
2013-6-3,81.5,71.9,64.0,73.0,69.6,62.7,99,91,63,29.92,29.84,3,0,5,0.76
2013-6-4,77.2,65.2,54.5,62.7,52.2,48.8,94,57,33,30.15,29.92,2,0,3,0.01
2013-6-5,79.7,65.3,50.4,58.9,52.3,44.6,76,57,33,30.23,30.12,2,0,4,0.00
2013-6-6,74.7,63.9,54.7,63.8,59.0,53.6,99,82,48,30.16,30.00,2,0,3,0.14
2013-6-7,65.1,62.5,60.3,64.9,62.1,60.0,99,98,97,30.00,29.64,4,1,7,2.10
2013-6-8,78.6,68.0,58.8,69.2,63.7,58.6,99,84,65,30.11,29.63,5,1,11,0.77
2013-6-9,84.7,71.6,59.2,66.0,62.6,58.0,96,71,43,30.22,30.10,1,0,4,0.01
2013-6-10,71.4,68.8,64.9,71.0,67.7,64.3,99,95,83,30.18,29.82,2,0,3,0.92
2013-6-11,82.0,73.8,66.2,70.8,67.9,62.8,99,79,59,29.82,29.71,6,1,10,0.38
2013-6-12,83.1,72.7,64.6,65.3,62.5,60.3,87,66,42,29.88,29.80,2,0,5,0.01
2013-6-13,75.7,67.4,58.8,72.6,64.1,58.4,99,87,74,29.88,29.45,2,0,3,0.47
2013-6-14,77.4,62.0,53.6,63.7,57.2,53.0,99,82,51,29.95,29.55,3,0,5,0.29
2013-6-15,82.4,69.6,56.5,65.9,59.8,54.7,94,68,39,30.07,29.95,0,0,1,0.01
2013-6-16,83.3,71.4,60.4,69.1,63.0,56.2,88,71,45,30.04,29.85,5,1,11,0.00
2013-6-17,88.0,75.4,64.8,72.9,67.9,64.0,98,75,48,29.96,29.88,2,0,2,0.00
2013-6-18,77.4,68.9,63.7,74.5,67.5,62.8,99,94,79,29.94,29.85,1,0,2,0.39
2013-6-19,80.2,67.6,58.6,62.8,59.0,55.7,99,72,36,30.19,29.91,0,0,2,0.07
2013-6-20,83.7,68.9,54.5,66.3,59.3,53.6,96,68,43,30.30,30.19,1,0,2,0.01
2013-6-21,85.6,70.9,56.8,66.0,58.6,53.3,89,60,38,30.34,30.26,0,0,1,0.00
2013-6-22,88.2,73.0,56.8,71.3,64.0,55.0,95,70,46,30.30,30.15,1,0,2,0.00
2013-6-23,89.4,74.7,63.3,76.0,69.8,61.7,97,83,53,30.23,30.09,0,0,1,0.15
2013-6-24,93.4,79.0,70.5,77.4,71.9,66.8,99,77,48,30.12,30.02,2,0,3,0.01
2013-6-25,92.5,78.8,66.7,76.9,71.0,65.3,95,74,47,30.05,29.88,2,0,4,0.02
2013-6-26,90.7,77.0,68.7,75.4,70.3,65.7,98,77,52,29.92,29.82,4,0,6,0.21
2013-6-27,90.5,77.2,70.2,78.0,73.2,69.7,99,86,56,29.87,29.60,3,0,8,0.66
2013-6-28,87.4,75.7,69.4,75.6,71.5,68.0,98,85,57,29.63,29.53,0,0,2,0.63
2013-6-29,88.9,76.8,66.6,72.8,68.7,66.1,99,74,45,29.74,29.54,0,0,2,0.02
2013-6-30,84.4,74.7,70.3,78.0,72.8,66.3,98,93,76,29.93,29.75,1,0,2,0.31
2013-7-1,77.7,74.5,70.2,76.4,73.6,69.5,99,96,92,30.07,29.91,0,0,1,0.35
2013-7-2,86.0,77.1,72.7,78.3,74.1,70.7,97,89,67,30.22,30.07,0,0,1,0.06
2013-7-3,82.8,74.5,71.2,76.9,72.4,69.4,97,92,78,30.29,30.22,1,0,2,0.05
2013-7-4,90.3,80.7,73.9,79.2,75.2,72.2,99,82,58,30.30,30.20,0,0,1,0.06
2013-7-5,92.3,82.2,72.7,78.9,74.9,71.5,97,76,52,30.26,30.15,0,0,1,0.01
2013-7-6,95.7,84.2,75.4,78.9,75.5,73.6,94,72,47,30.20,30.08,0,0,1,0.00
2013-7-7,94.3,82.6,72.5,80.4,74.8,69.9,93,74,50,30.13,30.00,4,0,7,0.01
2013-7-8,89.6,77.2,70.0,75.9,70.9,68.1,94,78,52,30.11,30.04,0,0,1,0.01
2013-7-9,89.2,78.4,69.1,76.7,72.4,67.8,96,79,57,30.12,30.03,0,0,1,0.00
2013-7-10,89.6,80.7,73.0,78.2,74.9,72.1,98,80,56,30.06,29.86,4,0,4,0.00
2013-7-11,87.3,78.8,74.7,75.7,72.8,67.0,91,79,57,29.97,29.86,1,0,2,0.00
2013-7-12,76.6,72.1,68.9,71.4,67.8,64.8,99,83,71,30.09,29.96,2,0,2,0.66
2013-7-13,90.3,76.0,68.9,79.2,73.7,68.7,99,92,63,30.33,30.09,0,0,2,0.57
2013-7-14,93.0,80.7,72.5,80.0,75.1,71.8,99,81,53,30.39,30.29,2,0,2,0.22
2013-7-15,96.8,83.4,72.3,80.0,75.5,70.0,95,75,48,30.31,30.18,0,0,1,0.01
2013-7-16,94.5,83.3,73.4,75.9,73.6,70.6,91,70,46,30.26,30.18,0,0,1,0.00
2013-7-17,97.2,84.2,73.2,78.2,73.8,70.5,89,68,42,30.24,30.11,1,0,2,0.00
2013-7-18,99.0,86.4,77.4,80.6,76.7,73.0,85,69,46,30.13,30.01,2,0,2,0.00
2013-7-19,97.2,87.5,79.3,83.3,79.3,76.8,93,73,52,30.05,29.86,2,0,3,0.02
2013-7-20,94.5,84.0,77.4,79.2,74.7,70.7,83,69,54,29.90,29.80,3,0,4,0.02
2013-7-21,91.6,78.0,71.8,78.2,73.5,70.3,94,84,57,29.99,29.89,0,0,1,0.18
2013-7-22,88.3,75.8,71.2,79.0,73.6,70.3,98,92,65,29.99,29.83,1,0,2,1.17
2013-7-23,87.3,76.1,70.5,79.4,73.4,70.1,99,90,65,29.83,29.64,0,0,2,1.71
2013-7-24,80.2,74.0,64.6,71.5,67.6,57.0,93,77,62,29.98,29.68,2,0,3,0.01
2013-7-25,72.0,64.9,59.9,63.0,58.9,54.7,85,76,65,30.08,29.96,3,0,5,0.00
2013-7-26,84.0,71.2,60.3,67.6,62.5,59.2,96,71,46,30.09,30.04,0,0,1,0.00
2013-7-27,87.8,74.0,63.1,72.8,66.3,60.1,99,74,47,30.10,29.97,0,0,1,0.00
2013-7-28,84.6,72.2,67.1,76.8,69.5,64.7,99,89,72,30.01,29.92,0,0,1,0.51
2013-7-29,85.5,72.6,64.4,70.7,64.9,58.6,99,76,37,30.16,30.00,2,0,3,0.13
2013-7-30,82.2,70.0,59.7,65.9,61.2,57.2,89,70,44,30.23,30.16,0,0,1,0.00
2013-7-31,84.2,71.9,60.3,69.1,64.3,59.0,96,74,45,30.20,30.08,2,0,2,0.00
2013-8-1,72.3,68.8,66.2,71.6,67.7,64.7,99,95,82,30.08,29.87,0,0,2,0.60
2013-8-2,86.2,74.6,64.9,72.7,67.9,64.4,99,78,46,29.98,29.85,2,0,3,0.01
2013-8-3,75.9,70.6,65.8,70.2,66.4,63.0,96,83,74,29.98,29.91,1,0,2,0.05
2013-8-4,80.8,69.9,61.0,66.8,62.2,58.0,98,74,42,30.04,29.90,0,0,2,0.01
2013-8-5,80.4,66.5,54.9,60.8,57.2,53.5,95,68,42,30.12,30.04,0,0,1,0.00
2013-8-6,83.5,68.0,57.4,67.1,61.5,55.8,95,77,45,30.15,30.08,0,0,1,0.00
2013-8-7,78.1,71.0,65.5,72.4,68.2,63.8,97,89,75,30.16,30.08,0,0,2,0.00
2013-8-8,88.0,76.4,69.1,80.1,73.1,68.8,99,88,64,30.10,30.02,0,0,2,0.33
2013-8-9,85.1,78.5,74.5,80.1,75.4,72.4,96,88,74,30.04,29.86,2,0,2,0.09
2013-8-10,85.6,75.9,68.7,74.9,68.9,65.3,97,76,51,30.09,29.92,0,0,1,0.01
2013-8-11,86.9,73.6,61.3,70.4,65.2,58.3,93,71,47,30.17,30.05,1,0,2,0.00
2013-8-12,86.0,75.0,69.3,73.7,69.9,67.2,98,82,52,30.08,29.97,0,0,1,0.00
2013-8-13,83.5,73.2,66.0,73.9,70.3,65.8,99,89,64,29.97,29.76,0,0,1,1.70
2013-8-14,75.6,66.0,57.4,69.1,57.1,51.6,92,68,48,30.10,29.81,3,0,4,0.01
2013-8-15,80.1,64.2,52.2,60.9,55.4,51.1,96,71,36,30.20,30.10,0,0,1,0.00
2013-8-16,83.3,67.5,54.3,63.9,58.2,53.3,98,70,38,30.24,30.16,2,0,3,0.00
2013-8-17,85.5,69.5,57.2,66.9,60.6,55.9,96,71,43,30.31,30.24,0,0,1,0.00
2013-8-18,76.3,67.6,61.9,66.3,63.0,59.3,95,82,58,30.29,30.17,0,0,1,0.05
2013-8-19,78.3,69.2,62.1,69.2,65.0,61.4,97,84,65,30.19,30.09,2,0,2,0.01
2013-8-20,89.8,74.9,64.0,74.2,68.1,63.4,99,78,45,30.18,30.10,0,0,1,0.00
2013-8-21,91.0,77.4,65.8,73.2,68.8,65.2,98,73,40,30.23,30.10,0,0,1,0.00
2013-8-22,84.6,75.5,71.4,77.9,72.6,70.2,98,89,71,30.12,29.93,0,0,1,0.12
2013-8-23,77.4,71.1,64.6,70.5,66.2,61.3,96,81,57,30.14,29.94,0,0,1,0.01
2013-8-24,83.3,69.2,60.3,64.0,58.7,54.7,86,65,34,30.39,30.14,1,0,2,0.00
2013-8-25,85.1,69.0,55.2,64.6,59.1,54.6,98,69,34,30.44,30.29,0,0,1,0.00
2013-8-26,86.9,74.0,63.3,71.2,65.0,58.1,82,69,50,30.29,29.98,2,0,4,0.05
2013-8-27,89.4,77.5,70.0,73.8,69.9,67.2,94,74,49,29.98,29.90,0,0,1,0.08
2013-8-28,76.5,72.4,69.8,73.8,71.1,68.1,98,95,86,29.94,29.87,0,0,1,0.43
2013-8-29,82.8,73.5,69.1,74.1,70.6,66.8,98,89,67,30.07,29.91,0,0,1,0.01
2013-8-30,84.2,74.5,67.3,75.3,70.5,66.1,97,85,68,30.07,29.91,0,0,1,0.00
2013-8-31,88.5,77.9,70.0,78.1,73.3,68.6,97,83,63,29.93,29.84,0,0,1,0.00
2013-9-1,91.8,78.3,70.3,78.8,73.5,69.1,98,83,54,29.90,29.81,0,0,1,0.02
2013-9-2,82.4,74.6,71.4,78.1,73.1,70.3,99,94,74,29.84,29.76,0,0,2,0.40
2013-9-3,84.9,73.7,65.7,73.2,67.2,59.5,99,78,47,29.95,29.76,2,0,4,0.01
2013-9-4,82.9,69.5,58.6,64.9,60.8,57.3,95,70,43,30.08,29.94,2,0,2,0.00
2013-9-5,79.9,67.9,58.5,68.0,58.6,51.1,85,67,37,30.18,30.00,2,0,2,0.00
2013-9-6,74.5,60.6,49.8,53.5,49.8,46.8,86,62,34,30.29,30.18,2,0,2,0.00
2013-9-7,81.9,64.5,49.8,60.5,54.6,48.5,95,68,34,30.18,29.96,0,0,2,0.00
2013-9-8,83.3,70.5,58.6,70.4,62.0,50.2,90,70,51,30.12,29.90,1,0,2,0.00
2013-9-9,79.3,64.1,52.0,64.5,56.6,47.7,89,72,49,30.26,30.12,0,0,2,0.00
2013-9-10,88.9,76.8,65.1,77.2,71.6,62.5,94,81,61,30.22,30.11,0,0,1,0.00
2013-9-11,95.5,82.4,73.0,81.4,75.5,71.6,98,77,53,30.17,30.03,1,0,2,0.00
2013-9-12,90.0,77.3,69.1,78.2,72.7,64.4,98,84,60,30.04,29.76,3,0,5,0.22
2013-9-13,78.3,67.5,57.0,69.0,62.4,53.1,99,81,51,29.92,29.70,1,0,2,0.28
2013-9-14,65.7,56.1,48.4,54.1,50.0,46.3,93,76,56,30.19,29.92,0,0,2,0.01
2013-9-15,75.7,58.7,45.7,57.9,51.8,44.7,98,75,45,30.26,30.12,0,0,2,0.00
2013-9-16,72.1,61.6,55.6,62.9,57.5,51.6,97,84,58,30.27,30.07,0,0,2,0.09
2013-9-17,68.9,55.0,44.8,51.6,46.4,41.6,88,68,38,30.46,30.27,1,0,2,0.01
2013-9-18,75.7,55.7,43.5,55.2,47.9,42.9,98,73,34,30.39,30.22,0,0,2,0.00
2013-9-19,79.5,61.4,48.0,60.9,54.0,47.4,99,75,39,30.23,30.11,0,0,1,0.00
2013-9-20,83.1,65.6,52.5,67.4,59.0,52.1,99,78,43,30.13,30.01,0,0,2,0.00
2013-9-21,82.0,66.0,52.3,99.9,60.8,51.9,99,81,1,30.05,29.72,180,0,2,0.53
2013-9-22,70.5,61.2,52.0,62.8,54.8,47.2,99,77,46,29.97,29.71,0,0,2,0.65
2013-9-23,68.9,55.5,45.0,52.5,47.0,42.1,88,68,44,30.09,29.96,0,0,2,0.01
2013-9-24,74.8,56.0,41.2,57.1,48.5,40.6,99,73,41,30.10,29.94,1,0,2,0.00
2013-9-25,75.0,58.8,47.1,57.2,50.4,44.4,88,69,38,30.00,29.92,0,0,2,0.00
2013-9-26,76.6,60.3,50.0,63.7,55.9,49.2,97,83,55,30.12,29.97,2,0,2,0.00
2013-9-27,73.0,60.9,54.0,59.7,55.9,52.0,99,81,50,30.30,30.12,0,0,1,0.00
2013-9-28,77.0,62.4,53.6,60.1,55.4,51.3,96,75,44,30.35,30.26,0,0,1,0.00
2013-9-29,76.5,60.1,50.0,61.5,55.0,49.6,99,81,49,30.26,30.11,0,0,2,21.17
2013-9-30,75.6,59.1,48.6,59.9,53.9,48.4,99,81,47,30.12,30.02,0,0,1,0.00
2013-10-1,82.0,64.8,53.1,67.3,58.6,51.8,96,78,48,30.07,29.96,1,0,2,0.00
2013-10-2,85.8,70.0,57.9,68.1,62.6,56.8,95,75,46,30.07,29.98,0,0,1,0.00
2013-10-3,82.2,69.0,59.0,66.8,62.7,58.3,98,78,47,30.16,30.06,0,0,1,0.00
2013-10-4,88.5,72.0,61.0,71.0,65.8,60.3,99,79,49,30.11,30.02,0,0,1,0.00
2013-10-5,88.0,73.4,64.0,73.5,68.0,62.9,98,81,51,30.12,30.04,0,0,1,0.00
2013-10-6,81.1,68.9,64.6,73.2,67.3,64.1,99,94,72,30.11,30.02,0,0,1,0.39
2013-10-7,74.1,65.2,54.1,73.7,64.6,51.0,99,97,86,30.04,29.80,0,0,2,0.58
2013-10-8,67.8,55.6,46.8,54.4,50.3,46.4,99,79,52,30.34,30.04,1,0,2,0.01
2013-10-9,61.5,54.8,48.9,53.1,49.7,45.6,85,78,65,30.39,30.27,1,0,2,0.00
2013-10-10,59.5,55.4,50.9,58.0,53.8,49.8,99,93,79,30.28,30.05,3,1,5,0.24
2013-10-11,63.5,60.3,57.2,61.9,59.2,56.6,99,95,88,30.10,30.00,3,0,7,0.74
2013-10-12,71.8,63.6,58.3,61.7,56.2,49.4,90,72,52,30.26,30.07,4,0,8,0.01
2013-10-13,68.4,59.8,50.9,57.0,53.4,49.4,94,75,51,30.39,30.26,4,0,6,0.00
2013-10-14,71.8,56.1,47.8,58.1,51.9,47.6,99,84,52,30.38,30.26,0,0,1,0.00
2013-10-15,75.4,57.4,46.8,60.0,51.0,46.6,99,78,37,30.29,30.13,0,0,2,0.00
2013-10-16,69.4,59.7,51.8,62.4,56.9,49.2,98,88,72,30.13,29.95,0,0,1,0.00
2013-10-17,73.6,65.1,59.7,66.0,62.6,58.8,99,90,70,29.95,29.74,0,0,1,0.06
2013-10-18,67.8,58.1,48.2,64.3,49.6,43.8,97,67,46,30.03,29.75,2,0,2,0.01
2013-10-19,64.2,53.7,44.6,55.5,49.0,42.5,96,80,56,30.03,29.80,0,0,1,0.09
2013-10-20,64.2,52.1,44.2,53.5,44.0,40.4,98,69,35,30.11,29.82,0,0,2,0.11
2013-10-21,69.4,53.6,41.4,48.9,43.6,38.7,91,65,34,30.18,30.01,0,0,1,0.00
2013-10-22,66.0,52.8,45.7,55.1,47.7,37.2,99,79,57,30.01,29.82,0,0,2,0.00
2013-10-23,59.5,47.4,40.3,48.4,39.8,35.7,83,68,55,29.86,29.65,1,0,2,0.00
2013-10-24,52.9,43.0,36.5,39.6,35.2,31.4,89,68,42,30.08,29.82,1,0,3,0.00
2013-10-25,55.4,43.1,34.3,40.5,34.8,29.8,82,66,40,30.27,30.07,0,0,2,0.00
2013-10-26,57.4,45.0,33.1,40.5,35.1,29.5,84,62,38,30.27,29.94,1,0,2,0.00
2013-10-27,59.9,48.5,39.2,42.3,37.3,33.5,74,57,38,30.17,29.92,1,0,2,0.00
2013-10-28,63.9,47.2,34.7,45.2,37.9,30.9,85,64,38,30.33,30.16,0,0,1,0.00
2013-10-29,62.6,48.1,39.0,47.3,40.5,34.4,90,69,43,30.42,30.33,0,0,2,0.00
2013-10-30,61.0,49.7,41.2,54.9,47.2,39.7,95,88,74,30.37,30.21,0,0,2,0.00
2013-10-31,68.9,59.5,50.7,63.6,57.0,50.3,99,90,74,30.25,29.83,3,0,5,0.00
2013-11-1,70.2,63.3,55.6,65.3,60.1,54.5,98,87,63,29.83,29.60,4,0,8,0.74
2013-11-2,69.8,56.8,48.6,56.4,49.8,42.5,99,74,44,29.84,29.67,0,0,2,0.24
2013-11-3,54.1,44.9,30.7,43.8,35.4,23.0,85,62,32,30.48,29.84,5,0,11,0.00
2013-11-4,49.6,36.7,28.6,27.7,24.3,19.7,68,52,23,30.67,30.47,1,0,2,0.00
2013-11-5,59.7,46.1,33.4,46.6,38.6,27.0,87,68,53,30.65,30.50,0,0,2,0.00
2013-11-6,68.2,53.8,43.2,55.1,48.5,41.1,94,79,51,30.51,30.09,0,0,2,0.00
2013-11-7,61.2,53.3,39.4,58.6,50.7,35.8,94,88,72,30.09,29.82,2,0,4,0.02
2013-11-8,49.3,41.7,35.4,39.4,32.5,27.7,82,62,45,30.28,30.01,1,0,2,0.01
2013-11-9,52.9,40.9,30.4,35.4,31.9,26.1,84,63,36,30.34,30.02,0,0,1,0.00
2013-11-10,59.7,46.9,35.6,43.0,35.7,30.9,85,58,34,30.13,29.90,0,0,1,0.00
2013-11-11,56.5,47.3,35.8,40.0,35.4,28.1,69,54,38,30.26,30.01,2,0,4,0.00
2013-11-12,49.6,36.8,25.9,40.8,27.0,16.7,87,58,43,30.34,29.98,6,1,11,0.01
2013-11-13,41.9,31.3,24.4,22.7,18.0,13.0,62,46,25,30.42,30.33,2,0,2,0.01
2013-11-14,55.2,40.5,29.7,26.9,22.4,19.5,64,40,17,30.33,30.21,0,0,2,0.00
2013-11-15,59.2,44.3,33.4,40.6,32.4,24.2,75,55,27,30.28,30.19,0,0,1,0.00
2013-11-16,62.1,48.9,41.9,50.6,44.6,35.6,95,82,56,30.37,30.27,0,0,2,0.04
2013-11-17,68.5,57.5,49.1,61.5,54.4,47.9,96,87,70,30.28,29.80,0,0,2,0.01
2013-11-18,67.6,59.2,48.6,62.1,44.9,31.6,97,54,21,29.86,29.67,8,0,14,0.07
2013-11-19,49.1,42.2,32.2,33.0,29.2,23.3,61,50,39,30.37,29.86,8,2,14,0.01
2013-11-20,48.7,35.4,29.7,26.9,20.0,8.7,66,44,19,30.61,30.37,2,0,3,0.00
2013-11-21,52.9,41.8,27.3,42.6,32.4,0.0,77,60,42,30.61,30.41,2,0,2,0.00
2013-11-22,59.0,51.3,46.9,52.5,48.1,42.4,96,86,73,30.41,29.97,0,0,2,0.00
2013-11-23,51.6,40.9,29.1,50.0,30.7,15.8,95,58,41,30.10,29.97,6,2,12,0.01
2013-11-24,29.7,24.6,21.0,15.8,3.0,0.3,45,25,18,30.44,30.09,11,3,20,0.00
2013-11-25,35.4,27.0,18.9,20.7,14.7,6.3,62,48,32,30.53,30.35,4,1,7,0.00
2013-11-26,50.0,35.3,31.1,49.3,29.6,20.7,99,74,52,30.36,29.69,3,0,4,0.50
2013-11-27,61.0,42.8,31.3,60.5,40.9,22.8,99,91,56,29.86,29.43,8,2,14,2.32
2013-11-28,36.7,30.3,27.1,22.9,18.4,15.7,62,50,29,30.49,29.86,10,2,17,0.01
2013-11-29,40.6,30.3,23.9,27.1,20.7,17.0,73,57,41,30.74,30.48,0,0,2,0.00
2013-11-30,39.4,30.1,21.2,29.6,21.6,12.8,73,61,54,30.74,30.39,2,0,2,0.00
2013-12-1,49.6,38.1,28.0,36.8,31.0,24.0,86,69,50,30.39,30.05,1,0,2,0.00
2013-12-2,50.5,41.2,36.9,37.9,33.7,30.6,75,67,49,30.05,29.90,0,0,2,0.00
2013-12-3,53.2,42.7,37.4,43.7,36.8,32.3,87,74,52,30.03,29.91,2,0,4,0.00
2013-12-4,52.3,44.1,35.4,44.6,39.4,31.4,87,79,65,30.14,30.03,0,0,2,0.00
2013-12-5,56.7,52.3,46.6,56.4,51.7,44.8,99,97,88,30.13,29.96,0,0,1,0.01
2013-12-6,61.2,47.6,35.8,60.7,47.1,34.8,99,97,92,30.18,29.90,4,0,8,0.51
2013-12-7,38.7,33.8,28.2,35.0,29.9,23.1,96,81,63,30.53,30.10,4,0,5,0.34
2013-12-8,29.1,26.7,24.3,27.7,21.0,16.9,93,72,57,30.60,30.34,1,0,2,0.00
2013-12-9,34.9,33.0,28.9,34.0,32.0,27.7,96,95,93,30.35,30.02,2,0,6,0.26
2013-12-10,32.7,30.1,22.5,32.0,28.6,19.1,97,92,81,30.19,29.94,0,0,1,0.07
2013-12-11,31.5,24.2,16.3,22.7,17.4,-99.9,85,68,51,30.38,30.19,4,0,6,0.01
2013-12-12,26.6,21.3,17.2,17.5,10.9,5.7,78,53,32,30.39,30.20,4,0,6,0.01
2013-12-13,34.3,27.2,18.0,19.3,14.3,5.4,56,45,36,30.35,30.17,3,0,5,0.00
2013-12-14,30.2,27.3,24.8,28.4,21.8,18.0,93,73,55,30.44,29.70,5,1,7,0.00
2013-12-15,37.8,32.3,27.0,36.1,28.5,21.8,95,82,58,29.90,29.57,5,1,7,0.99
2013-12-16,30.4,24.7,18.5,23.0,11.8,7.0,67,46,27,30.25,29.89,8,2,15,0.01
2013-12-17,29.5,23.9,19.2,25.9,18.7,13.3,82,73,54,30.23,29.96,2,0,4,0.00
2013-12-18,36.3,27.2,18.3,24.7,19.3,13.4,81,64,45,30.22,29.97,1,0,2,0.04
2013-12-19,46.6,33.8,23.0,32.7,25.5,0.0,80,62,45,30.22,30.06,0,0,0,0.19
2013-12-20,52.0,43.2,35.2,43.4,33.9,28.2,84,62,44,30.12,30.00,0,0,2,0.01
2013-12-21,64.2,54.0,45.5,57.0,49.3,0.0,94,80,63,30.04,29.93,0,0,2,0.00
2013-12-22,67.3,63.5,60.3,62.9,59.8,56.6,91,84,77,30.00,29.84,5,0,8,0.07
2013-12-23,60.4,54.2,40.3,59.6,52.4,33.7,98,92,70,30.20,29.94,1,0,2,0.34
2013-12-24,40.3,33.6,25.5,33.7,23.5,13.2,70,56,46,30.39,30.14,4,0,6,0.01
2013-12-25,27.5,23.7,17.6,15.9,10.7,4.9,54,44,35,30.55,30.40,8,1,13,0.00
2013-12-26,37.6,28.1,20.7,29.7,21.1,14.3,76,66,54,30.43,30.20,1,0,2,0.00
2013-12-27,43.3,31.9,23.2,26.1,21.6,17.6,74,56,34,30.39,30.30,0,0,0,0.00
2013-12-28,55.9,41.2,27.9,32.5,27.2,19.9,71,49,26,30.32,30.11,2,0,2,0.00
2013-12-29,44.1,41.1,38.5,43.1,36.6,29.4,99,80,52,30.11,29.47,3,0,5,0.78
2013-12-30,43.9,36.4,23.5,41.0,30.2,13.4,97,73,47,30.19,29.76,2,0,3,0.01
2013-12-31,33.8,26.4,19.2,26.9,16.0,10.5,68,53,41,30.33,30.08,1,0,2,0.01
2014-1-1,37.0,28.5,20.1,23.5,18.0,10.8,60,54,45,30.43,30.22,1,0,2,0.00
2014-1-2,31.3,26.6,18.3,24.2,21.1,13.8,82,72,60,30.21,29.66,3,1,6,0.00